createdAt,value
2018-02-21T00:02:09.203Z,0.50
2018-02-21T00:04:36.715Z,0.50
2018-02-21T00:07:04.444Z,0.50
2018-02-21T00:09:33.454Z,0.60
2018-02-21T00:12:01.191Z,0.70
2018-02-21T00:14:29.500Z,0.70
2018-02-21T00:16:57.505Z,0.60
2018-02-21T00:19:25.050Z,0.60
2018-02-21T00:21:52.567Z,0.60
2018-02-21T00:24:20.307Z,0.50
2018-02-21T00:26:47.816Z,0.70
2018-02-21T00:29:15.543Z,0.70
2018-02-21T00:31:43.048Z,0.80
2018-02-21T00:34:10.543Z,0.80
2018-02-21T00:36:38.163Z,0.80
2018-02-21T00:39:05.707Z,0.50
2018-02-21T00:41:33.290Z,0.40
2018-02-21T00:44:00.795Z,0.40
2018-02-21T00:46:28.350Z,0.60
2018-02-21T00:48:55.855Z,0.60
2018-02-21T00:51:23.519Z,0.50
2018-02-21T00:53:51.046Z,0.50
2018-02-21T00:56:20.056Z,0.60
2018-02-21T00:58:47.576Z,0.60
2018-02-21T01:01:15.091Z,0.50
2018-02-21T01:03:42.612Z,0.50
2018-02-21T01:06:10.125Z,0.60
2018-02-21T01:08:37.903Z,0.60
2018-02-21T01:11:05.407Z,0.60
2018-02-21T01:13:32.989Z,0.50
2018-02-21T01:16:00.570Z,0.40
2018-02-21T01:18:28.351Z,0.40
2018-02-21T01:20:55.862Z,0.50
2018-02-21T01:23:23.368Z,0.50
2018-02-21T01:25:50.881Z,0.30
2018-02-21T01:28:18.471Z,0.30
2018-02-21T01:30:45.976Z,0.20
2018-02-21T01:33:13.482Z,0.10
2018-02-21T01:35:40.983Z,0.10
2018-02-21T01:38:09.263Z,0.20
2018-02-21T01:40:36.777Z,0.20
2018-02-21T01:43:04.294Z,0.20
2018-02-21T01:45:32.213Z,0.30
2018-02-21T01:47:59.963Z,0.30
2018-02-21T01:50:39.586Z,0.20
2018-02-21T01:53:07.183Z,0.20
2018-02-21T01:55:34.704Z,0.20
2018-02-21T01:58:02.215Z,0.20
2018-02-21T02:00:32.045Z,0.10
2018-02-21T02:02:59.755Z,0.00
2018-02-21T02:05:27.279Z,0.10
2018-02-21T02:07:54.983Z,0.30
2018-02-21T02:10:22.495Z,0.20
2018-02-21T02:12:49.997Z,0.10
2018-02-21T02:15:17.607Z,0.10
2018-02-21T02:17:45.293Z,0.10
2018-02-21T02:20:12.876Z,0.10
2018-02-21T02:22:40.394Z,-0.10
2018-02-21T02:25:08.107Z,-0.10
2018-02-21T02:27:35.632Z,-0.10
2018-02-21T02:30:03.150Z,-0.30
2018-02-21T02:32:30.647Z,-0.30
2018-02-21T02:34:58.156Z,-0.20
2018-02-21T02:37:25.666Z,-0.30
2018-02-21T02:40:01.055Z,-0.30
2018-02-21T02:42:29.261Z,-0.30
2018-02-21T02:44:56.972Z,-0.20
2018-02-21T02:47:24.492Z,-0.20
2018-02-21T02:49:52.362Z,-0.30
2018-02-21T02:52:19.856Z,-0.60
2018-02-21T02:54:47.399Z,-0.50
2018-02-21T02:57:15.175Z,-0.70
2018-02-21T02:59:42.708Z,-0.60
2018-02-21T03:02:10.256Z,-0.50
2018-02-21T03:04:37.805Z,-0.80
2018-02-21T03:07:05.301Z,-0.70
2018-02-21T03:09:33.080Z,-0.60
2018-02-21T03:12:02.095Z,-0.50
2018-02-21T03:14:29.636Z,-0.50
2018-02-21T03:16:57.279Z,-0.50
2018-02-21T03:19:25.016Z,-0.50
2018-02-21T03:21:52.573Z,-0.60
2018-02-21T03:24:20.089Z,-0.70
2018-02-21T03:26:47.599Z,-0.60
2018-02-21T03:29:15.175Z,-0.60
2018-02-21T03:31:42.938Z,-0.50
2018-02-21T03:34:10.444Z,-0.50
2018-02-21T03:36:38.102Z,-0.50
2018-02-21T03:39:05.613Z,-0.50
2018-02-21T03:41:33.376Z,-0.50
2018-02-21T03:44:00.895Z,-0.40
2018-02-21T03:46:28.579Z,-0.40
2018-02-21T03:48:56.360Z,-0.40
2018-02-21T03:51:23.902Z,-0.50
2018-02-21T03:53:51.588Z,-0.40
2018-02-21T03:56:19.342Z,-0.40
2018-02-21T03:58:46.871Z,-0.50
2018-02-21T04:01:14.740Z,-0.60
2018-02-21T04:03:42.343Z,-0.60
2018-02-21T04:06:11.372Z,-0.60
2018-02-21T04:08:38.887Z,-0.60
2018-02-21T04:11:06.460Z,-0.50
2018-02-21T04:13:33.996Z,-0.50
2018-02-21T04:16:01.511Z,-0.50
2018-02-21T04:18:29.033Z,-0.40
2018-02-21T04:20:56.538Z,-0.40
2018-02-21T04:23:24.129Z,-0.40
2018-02-21T04:25:51.648Z,-0.40
2018-02-21T04:28:19.319Z,-0.60
2018-02-21T04:30:47.716Z,-0.70
2018-02-21T04:33:15.219Z,-0.70
2018-02-21T04:35:42.906Z,-0.70
2018-02-21T04:38:10.427Z,-0.60
2018-02-21T04:40:39.447Z,-0.70
2018-02-21T04:43:07.155Z,-0.70
2018-02-21T04:45:34.696Z,-0.60
2018-02-21T04:48:02.399Z,-0.60
2018-02-21T04:50:29.916Z,-0.60
2018-02-21T04:52:57.428Z,-0.50
2018-02-21T04:55:31.427Z,-0.70
2018-02-21T04:58:05.236Z,-0.70
2018-02-21T05:00:32.839Z,-0.80
2018-02-21T05:03:00.355Z,-0.70
2018-02-21T05:05:27.879Z,-0.70
2018-02-21T05:07:55.379Z,-0.70
2018-02-21T05:10:23.668Z,-0.80
2018-02-21T05:12:51.352Z,-0.80
2018-02-21T05:15:19.013Z,-0.80
2018-02-21T05:17:46.576Z,-0.80
2018-02-21T05:20:14.361Z,-0.70
2018-02-21T05:22:41.871Z,-0.80
2018-02-21T05:25:09.595Z,-0.70
2018-02-21T05:27:37.358Z,-0.70
2018-02-21T05:30:05.127Z,-0.60
2018-02-21T05:32:32.653Z,-0.70
2018-02-21T05:35:00.168Z,-0.70
2018-02-21T05:37:28.651Z,-0.60
2018-02-21T05:39:56.371Z,-0.60
2018-02-21T05:42:23.903Z,-0.60
2018-02-21T05:44:51.706Z,-0.60
2018-02-21T05:47:19.230Z,-0.40
2018-02-21T05:49:46.785Z,-0.60
2018-02-21T05:52:14.292Z,-0.60
2018-02-21T05:54:42.563Z,-0.60
2018-02-21T05:57:10.115Z,-0.60
2018-02-21T05:59:38.404Z,-0.70
2018-02-21T06:02:05.917Z,-0.70
2018-02-21T06:04:33.548Z,-0.70
2018-02-21T06:07:01.062Z,-0.60
2018-02-21T06:09:28.892Z,-0.60
2018-02-21T06:11:56.422Z,-0.60
2018-02-21T06:14:24.051Z,-0.70
2018-02-21T06:16:51.679Z,-0.70
2018-02-21T06:19:19.184Z,-0.70
2018-02-21T06:21:46.808Z,-0.70
2018-02-21T06:24:14.416Z,-0.60
2018-02-21T06:26:41.951Z,-0.70
2018-02-21T06:29:09.487Z,-0.60
2018-02-21T06:31:37.075Z,-0.70
2018-02-21T06:34:06.084Z,-0.60
2018-02-21T06:36:33.616Z,-0.60
2018-02-21T06:39:01.152Z,-0.60
2018-02-21T06:41:28.695Z,-0.40
2018-02-21T06:43:56.191Z,-0.30
2018-02-21T06:46:23.777Z,-0.30
2018-02-21T06:48:52.092Z,-0.20
2018-02-21T06:51:19.600Z,-0.20
2018-02-21T06:53:48.166Z,-0.20
2018-02-21T06:56:15.701Z,-0.20
2018-02-21T06:58:43.210Z,-0.40
2018-02-21T07:01:11.503Z,-0.40
2018-02-21T07:03:39.181Z,-0.40
2018-02-21T07:06:06.697Z,-0.40
2018-02-21T07:08:34.320Z,-0.40
2018-02-21T07:11:01.828Z,-0.40
2018-02-21T07:13:29.836Z,-0.50
2018-02-21T07:15:57.347Z,-0.60
2018-02-21T07:18:24.868Z,-0.60
2018-02-21T07:20:52.376Z,-0.60
2018-02-21T07:23:19.897Z,-0.60
2018-02-21T07:25:47.412Z,-0.60
2018-02-21T07:28:15.013Z,-0.60
2018-02-21T07:30:43.599Z,-0.60
2018-02-21T07:33:11.127Z,-0.60
2018-02-21T07:35:38.755Z,-0.60
2018-02-21T07:38:07.048Z,-0.50
2018-02-21T07:40:34.736Z,-0.50
2018-02-21T07:43:02.252Z,-0.40
2018-02-21T07:45:29.751Z,-0.30
2018-02-21T07:47:57.292Z,-0.40
2018-02-21T07:50:24.795Z,-0.40
2018-02-21T07:52:52.719Z,-0.20
2018-02-21T07:55:20.227Z,-0.30
2018-02-21T07:57:48.503Z,-0.10
2018-02-21T08:00:16.231Z,-0.10
2018-02-21T08:02:43.749Z,-0.10
2018-02-21T08:05:11.258Z,-0.10
2018-02-21T08:07:38.818Z,0.00
2018-02-21T08:10:06.342Z,0.00
2018-02-21T08:12:33.851Z,0.20
2018-02-21T08:15:01.588Z,0.30
2018-02-21T08:17:29.086Z,0.40
2018-02-21T08:19:56.803Z,0.50
2018-02-21T08:22:24.317Z,0.50
2018-02-21T08:24:51.993Z,0.70
2018-02-21T08:27:19.503Z,0.80
2018-02-21T08:29:47.011Z,0.80
2018-02-21T08:32:14.712Z,0.70
2018-02-21T08:34:42.564Z,0.80
2018-02-21T08:37:10.061Z,0.90
2018-02-21T08:39:37.537Z,1.20
2018-02-21T08:42:05.050Z,1.10
2018-02-21T08:44:32.547Z,1.30
2018-02-21T08:47:00.368Z,1.20
2018-02-21T08:49:28.141Z,1.20
2018-02-21T08:51:55.627Z,1.40
2018-02-21T08:54:23.341Z,1.30
2018-02-21T08:56:51.103Z,1.20
2018-02-21T08:59:18.604Z,1.20
2018-02-21T09:01:46.113Z,1.40
2018-02-21T09:04:13.801Z,1.50
2018-02-21T09:06:41.299Z,1.50
2018-02-21T09:09:08.814Z,1.60
2018-02-21T09:11:36.346Z,1.70
2018-02-21T09:14:03.836Z,1.90
2018-02-21T09:16:31.439Z,1.70
2018-02-21T09:18:58.879Z,1.80
2018-02-21T09:21:26.403Z,1.80
2018-02-21T09:23:54.058Z,1.90
2018-02-21T09:26:21.554Z,2.10
2018-02-21T09:28:49.071Z,2.20
2018-02-21T09:31:16.599Z,2.20
2018-02-21T09:33:44.106Z,2.30
2018-02-21T09:36:11.607Z,2.60
2018-02-21T09:38:39.113Z,2.60
2018-02-21T09:41:08.133Z,2.30
2018-02-21T09:43:35.852Z,2.40
2018-02-21T09:46:03.349Z,2.50
2018-02-21T09:48:31.076Z,2.60
2018-02-21T09:50:58.978Z,2.70
2018-02-21T09:53:27.534Z,2.70
2018-02-21T09:55:55.023Z,2.70
2018-02-21T09:58:22.918Z,2.80
2018-02-21T10:00:51.128Z,2.90
2018-02-21T10:03:18.846Z,2.70
2018-02-21T10:05:46.351Z,2.80
2018-02-21T10:08:14.115Z,3.00
2018-02-21T10:10:43.127Z,3.10
2018-02-21T10:13:10.670Z,3.20
2018-02-21T10:15:38.167Z,3.20
2018-02-21T10:18:05.675Z,3.20
2018-02-21T10:20:33.195Z,3.20
2018-02-21T10:23:01.066Z,3.10
2018-02-21T10:25:28.565Z,3.30
2018-02-21T10:27:56.175Z,3.30
2018-02-21T10:30:23.715Z,3.40
2018-02-21T10:32:51.273Z,3.50
2018-02-21T10:35:19.549Z,3.40
2018-02-21T10:37:47.064Z,3.40
2018-02-21T10:40:14.724Z,3.40
2018-02-21T10:42:42.234Z,3.60
2018-02-21T10:45:09.939Z,3.80
2018-02-21T10:47:37.438Z,3.90
2018-02-21T10:50:10.647Z,3.90
2018-02-21T10:52:38.144Z,4.00
2018-02-21T10:55:05.664Z,4.00
2018-02-21T10:57:33.159Z,4.00
2018-02-21T11:00:00.799Z,4.20
2018-02-21T11:02:29.115Z,4.10
2018-02-21T11:04:56.633Z,3.90
2018-02-21T11:07:24.432Z,3.90
2018-02-21T11:09:51.951Z,3.80
2018-02-21T11:12:19.640Z,4.00
2018-02-21T11:14:47.155Z,4.00
2018-02-21T11:17:14.856Z,4.30
2018-02-21T11:19:42.620Z,4.20
2018-02-21T11:22:10.389Z,4.20
2018-02-21T11:24:37.932Z,4.20
2018-02-21T11:27:05.475Z,4.10
2018-02-21T11:29:32.972Z,4.20
2018-02-21T11:32:00.532Z,4.20
2018-02-21T11:34:28.286Z,4.30
2018-02-21T11:36:55.795Z,4.30
2018-02-21T11:39:23.418Z,4.40
2018-02-21T11:41:50.960Z,4.30
2018-02-21T11:44:18.487Z,4.20
2018-02-21T11:46:46.004Z,4.10
2018-02-21T11:49:13.493Z,4.00
2018-02-21T11:51:40.999Z,4.00
2018-02-21T11:54:08.523Z,3.70
2018-02-21T11:56:36.321Z,3.80
2018-02-21T11:59:03.878Z,3.80
2018-02-21T12:01:31.503Z,4.00
2018-02-21T12:03:59.301Z,4.20
2018-02-21T12:06:26.809Z,4.10
2018-02-21T12:08:54.311Z,4.20
2018-02-21T12:11:21.971Z,4.00
2018-02-21T12:13:49.463Z,4.00
2018-02-21T12:16:16.971Z,3.80
2018-02-21T12:18:44.491Z,3.90
2018-02-21T12:21:12.795Z,3.90
2018-02-21T12:23:40.463Z,3.80
2018-02-21T12:26:08.012Z,4.00
2018-02-21T12:28:35.503Z,4.00
2018-02-21T12:31:03.018Z,3.90
2018-02-21T12:33:30.610Z,3.80
2018-02-21T12:35:58.120Z,3.70
2018-02-21T12:38:25.624Z,3.90
2018-02-21T12:40:59.948Z,3.90
2018-02-21T12:43:27.499Z,3.90
2018-02-21T12:45:55.607Z,3.80
2018-02-21T12:48:23.117Z,3.80
2018-02-21T12:50:50.824Z,3.60
2018-02-21T12:53:18.330Z,3.50
2018-02-21T12:55:45.833Z,3.70
2018-02-21T12:58:13.349Z,3.60
2018-02-21T13:00:40.869Z,3.70
2018-02-21T13:03:08.386Z,3.50
2018-02-21T13:05:35.899Z,3.60
2018-02-21T13:08:03.622Z,3.60
2018-02-21T13:10:31.107Z,3.50
2018-02-21T13:12:58.627Z,3.40
2018-02-21T13:15:26.861Z,3.50
2018-02-21T13:17:54.367Z,3.50
2018-02-21T13:20:21.876Z,3.40
2018-02-21T13:22:49.567Z,3.60
2018-02-21T13:25:17.068Z,3.60
2018-02-21T13:27:44.787Z,3.70
2018-02-21T13:30:12.291Z,3.60
2018-02-21T13:32:39.799Z,3.70
2018-02-21T13:35:07.302Z,3.80
2018-02-21T13:37:35.847Z,3.80
2018-02-21T13:40:03.623Z,3.80
2018-02-21T13:42:31.118Z,3.90
2018-02-21T13:44:58.844Z,3.80
2018-02-21T13:47:26.606Z,3.70
2018-02-21T13:49:54.128Z,3.70
2018-02-21T13:52:21.670Z,3.70
2018-02-21T13:54:49.264Z,3.90
2018-02-21T13:57:16.776Z,3.70
2018-02-21T13:59:44.461Z,3.80
2018-02-21T14:02:12.257Z,3.70
2018-02-21T14:04:39.781Z,3.70
2018-02-21T14:07:07.295Z,3.80
2018-02-21T14:09:34.805Z,3.90
2018-02-21T14:12:02.370Z,3.80
2018-02-21T14:14:29.884Z,3.80
2018-02-21T14:16:57.400Z,3.60
2018-02-21T14:19:25.043Z,3.50
2018-02-21T14:21:52.537Z,3.30
2018-02-21T14:24:20.055Z,3.30
2018-02-21T14:26:47.554Z,3.60
2018-02-21T14:29:15.211Z,3.40
2018-02-21T14:31:42.713Z,3.50
2018-02-21T14:34:10.246Z,3.50
2018-02-21T14:36:37.747Z,3.40
2018-02-21T14:39:05.334Z,3.60
2018-02-21T14:41:32.839Z,3.70
2018-02-21T14:44:00.554Z,3.60
2018-02-21T14:46:28.109Z,3.70
2018-02-21T14:48:55.641Z,3.80
2018-02-21T14:51:23.244Z,3.60
2018-02-21T14:53:50.991Z,3.70
2018-02-21T14:56:18.756Z,3.80
2018-02-21T14:58:46.256Z,3.70
2018-02-21T15:01:15.408Z,3.70
2018-02-21T15:03:42.914Z,3.80
2018-02-21T15:06:10.730Z,3.70
2018-02-21T15:08:38.228Z,3.60
2018-02-21T15:11:06.571Z,3.60
2018-02-21T15:13:34.083Z,3.60
2018-02-21T15:16:01.621Z,3.70
2018-02-21T15:18:29.892Z,3.60
2018-02-21T15:20:57.647Z,3.60
2018-02-21T15:23:25.403Z,3.60
2018-02-21T15:25:52.894Z,3.60
2018-02-21T15:28:20.396Z,3.50
2018-02-21T15:30:48.036Z,3.70
2018-02-21T15:33:15.699Z,3.70
2018-02-21T15:35:43.204Z,3.50
2018-02-21T15:38:10.895Z,3.50
2018-02-21T15:40:39.163Z,3.60
2018-02-21T15:43:06.877Z,3.60
2018-02-21T15:45:34.380Z,3.70
2018-02-21T15:48:02.115Z,3.80
2018-02-21T15:50:29.630Z,3.60
2018-02-21T15:52:57.153Z,3.60
2018-02-21T15:55:25.416Z,3.50
2018-02-21T15:57:53.039Z,3.40
2018-02-21T16:00:20.547Z,3.30
2018-02-21T16:02:48.062Z,3.20
2018-02-21T16:05:15.809Z,3.30
2018-02-21T16:07:43.324Z,3.40
2018-02-21T16:10:11.036Z,3.50
2018-02-21T16:12:38.550Z,3.50
2018-02-21T16:15:06.269Z,3.50
2018-02-21T16:17:33.789Z,3.60
2018-02-21T16:20:01.304Z,3.60
2018-02-21T16:22:29.415Z,3.60
2018-02-21T16:24:56.934Z,3.60
2018-02-21T16:27:24.474Z,3.60
2018-02-21T16:29:51.974Z,3.50
2018-02-21T16:32:19.708Z,3.40
2018-02-21T16:34:47.473Z,3.30
2018-02-21T16:37:15.236Z,3.40
2018-02-21T16:39:42.747Z,3.50
2018-02-21T16:42:10.238Z,3.40
2018-02-21T16:44:37.897Z,3.40
2018-02-21T16:47:05.672Z,3.40
2018-02-21T16:49:33.447Z,3.40
2018-02-21T16:52:01.060Z,3.50
2018-02-21T16:54:28.569Z,3.40
2018-02-21T16:56:56.074Z,3.40
2018-02-21T16:59:23.590Z,3.40
2018-02-21T17:01:51.088Z,3.30
2018-02-21T17:04:18.779Z,3.40
2018-02-21T17:06:46.372Z,3.30
2018-02-21T17:09:14.012Z,3.40
2018-02-21T17:11:41.533Z,3.70
2018-02-21T17:14:09.054Z,4.00
2018-02-21T17:16:37.322Z,4.30
2018-02-21T17:19:05.048Z,4.20
2018-02-21T17:21:32.552Z,3.90
2018-02-21T17:24:00.128Z,3.70
2018-02-21T17:26:27.700Z,3.60
2018-02-21T17:28:55.203Z,3.60
2018-02-21T17:31:22.714Z,3.50
2018-02-21T17:33:50.226Z,3.40
2018-02-21T17:36:17.832Z,3.40
2018-02-21T17:38:45.343Z,3.40
2018-02-21T17:41:18.422Z,3.30
2018-02-21T17:43:45.931Z,3.20
2018-02-21T17:46:14.816Z,3.20
2018-02-21T17:48:42.335Z,3.20
2018-02-21T17:51:09.842Z,3.10
2018-02-21T17:53:37.347Z,3.10
2018-02-21T17:56:04.859Z,3.10
2018-02-21T17:58:32.362Z,2.90
2018-02-21T18:01:00.080Z,2.90
2018-02-21T18:03:27.864Z,2.80
2018-02-21T18:05:55.385Z,2.80
2018-02-21T18:08:23.486Z,2.90
2018-02-21T18:10:51.155Z,2.70
2018-02-21T18:13:18.988Z,2.70
2018-02-21T18:15:47.405Z,2.80
2018-02-21T18:18:15.079Z,2.70
2018-02-21T18:20:42.566Z,2.60
2018-02-21T18:23:10.078Z,2.70
2018-02-21T18:25:37.721Z,2.70
2018-02-21T18:28:05.315Z,2.70
2018-02-21T18:30:32.820Z,2.60
2018-02-21T18:33:00.411Z,2.80
2018-02-21T18:35:27.959Z,2.60
2018-02-21T18:37:55.627Z,2.60
2018-02-21T18:40:23.398Z,2.60
2018-02-21T18:42:50.908Z,2.40
2018-02-21T18:45:18.406Z,2.30
2018-02-21T18:47:46.031Z,2.30
2018-02-21T18:50:13.547Z,2.30
2018-02-21T18:52:42.576Z,2.30
2018-02-21T18:55:10.075Z,2.30
2018-02-21T18:57:38.363Z,2.10
2018-02-21T19:00:06.376Z,2.00
2018-02-21T19:02:33.903Z,2.00
2018-02-21T19:05:02.942Z,1.80
2018-02-21T19:07:30.647Z,1.80
2018-02-21T19:09:58.177Z,1.70
2018-02-21T19:12:25.687Z,1.70
2018-02-21T19:14:53.200Z,1.70
2018-02-21T19:17:20.790Z,1.60
2018-02-21T19:19:48.588Z,1.50
2018-02-21T19:22:16.099Z,1.60
2018-02-21T19:24:43.702Z,1.80
2018-02-21T19:27:11.257Z,1.90
2018-02-21T19:29:38.795Z,1.80
2018-02-21T19:32:06.473Z,1.70
2018-02-21T19:34:34.139Z,1.60
2018-02-21T19:37:02.243Z,1.50
2018-02-21T19:39:29.757Z,1.50
2018-02-21T19:41:57.300Z,1.50
2018-02-21T19:44:24.851Z,1.60
2018-02-21T19:46:52.401Z,1.50
2018-02-21T19:49:20.005Z,1.60
2018-02-21T19:51:47.560Z,1.50
2018-02-21T19:54:15.096Z,1.40
2018-02-21T19:56:42.622Z,1.50
2018-02-21T19:59:10.189Z,1.50
2018-02-21T20:01:37.705Z,1.60
2018-02-21T20:04:06.024Z,1.50
2018-02-21T20:06:33.681Z,1.50
2018-02-21T20:09:01.208Z,1.50
2018-02-21T20:11:28.884Z,1.60
2018-02-21T20:13:56.396Z,1.50
2018-02-21T20:16:23.964Z,1.50
2018-02-21T20:18:51.553Z,1.50
2018-02-21T20:21:19.104Z,1.40
2018-02-21T20:23:46.819Z,1.40
2018-02-21T20:26:14.376Z,1.40
2018-02-21T20:28:42.099Z,1.50
2018-02-21T20:31:09.644Z,1.50
2018-02-21T20:33:37.238Z,1.50
2018-02-21T20:36:04.752Z,1.40
2018-02-21T20:38:33.247Z,1.40
2018-02-21T20:41:00.869Z,1.40
2018-02-21T20:43:30.093Z,1.30
2018-02-21T20:45:57.774Z,1.20
2018-02-21T20:48:25.598Z,1.30
2018-02-21T20:50:53.111Z,1.20
2018-02-21T20:53:20.793Z,1.10
2018-02-21T20:55:48.308Z,1.10
2018-02-21T20:58:15.831Z,1.00
2018-02-21T21:00:43.348Z,1.00
2018-02-21T21:03:10.869Z,1.00
2018-02-21T21:05:38.866Z,0.90
2018-02-21T21:08:06.365Z,0.80
2018-02-21T21:10:33.903Z,0.90
2018-02-21T21:13:01.674Z,0.90
2018-02-21T21:15:29.191Z,0.90
2018-02-21T21:17:56.886Z,0.90
2018-02-21T21:20:24.430Z,0.90
2018-02-21T21:22:52.128Z,0.90
2018-02-21T21:25:19.882Z,0.90
2018-02-21T21:27:47.521Z,0.90
2018-02-21T21:30:15.118Z,0.90
2018-02-21T21:32:44.136Z,0.80
2018-02-21T21:35:11.647Z,0.80
2018-02-21T21:37:39.147Z,0.70
2018-02-21T21:40:07.692Z,0.70
2018-02-21T21:42:35.192Z,0.70
2018-02-21T21:45:02.707Z,0.70
2018-02-21T21:47:30.227Z,0.70
2018-02-21T21:49:57.796Z,0.70
2018-02-21T21:52:25.307Z,0.70
2018-02-21T21:54:52.808Z,0.70
2018-02-21T21:57:20.468Z,0.60
2018-02-21T21:59:47.971Z,0.60
2018-02-21T22:02:17.262Z,0.60
2018-02-21T22:04:45.015Z,0.50
2018-02-21T22:07:12.827Z,0.50
2018-02-21T22:09:40.339Z,0.50
2018-02-21T22:12:07.999Z,0.50
2018-02-21T22:14:35.503Z,0.50
2018-02-21T22:17:03.239Z,0.60
2018-02-21T22:19:32.260Z,0.60
2018-02-21T22:21:59.968Z,0.60
2018-02-21T22:24:27.468Z,0.50
2018-02-21T22:26:54.975Z,0.60
2018-02-21T22:29:22.680Z,0.50
2018-02-21T22:31:51.683Z,0.60
2018-02-21T22:34:19.200Z,0.60
2018-02-21T22:36:46.860Z,0.50
2018-02-21T22:39:14.363Z,0.50
2018-02-21T22:41:41.867Z,0.50
2018-02-21T22:44:09.540Z,0.50
2018-02-21T22:46:37.168Z,0.40
2018-02-21T22:49:04.763Z,0.40
2018-02-21T22:51:32.527Z,0.40
2018-02-21T22:54:00.041Z,0.40
2018-02-21T22:56:27.701Z,0.40
2018-02-21T22:58:55.501Z,0.50
2018-02-21T23:01:23.004Z,0.50
2018-02-21T23:03:50.728Z,0.50
2018-02-21T23:06:18.227Z,0.50
2018-02-21T23:08:45.736Z,0.40
2018-02-21T23:11:13.251Z,0.30
2018-02-21T23:13:40.760Z,0.30
2018-02-21T23:16:08.317Z,0.30
2018-02-21T23:18:36.084Z,0.30
2018-02-21T23:21:03.842Z,0.30
2018-02-21T23:23:31.992Z,0.30
2018-02-21T23:25:59.495Z,0.30
2018-02-21T23:28:27.003Z,0.30
2018-02-21T23:30:54.564Z,0.20
2018-02-21T23:33:22.353Z,0.20
2018-02-21T23:35:49.863Z,0.30
2018-02-21T23:38:17.548Z,0.30
2018-02-21T23:40:45.055Z,0.40
2018-02-21T23:43:12.565Z,0.30
2018-02-21T23:45:40.070Z,0.20
2018-02-21T23:48:08.324Z,0.30
2018-02-21T23:50:35.958Z,0.30
2018-02-21T23:53:03.676Z,0.30
2018-02-21T23:55:31.169Z,0.30
2018-02-21T23:57:58.710Z,0.40
